Time;durP1;ratioP1;P1;durP2;ratioP2;P2;SDS_P1;SDS_P2;PMS_P1;PMS_P2;Temp;Humidity;BMP_temperature;BMP_pressure;BME280_temperature;BME280_humidity;BME280_pressure;Samples;Min_cycle;Max_cycle;Signal;HPM_P1;HPM_P2
2022/11/25 00:00:20;;;;;;;124.28;72.82;;;;;;;3.07;100.00;99614.53;5095171;28;20367;-86
2022/11/25 00:02:46;;;;;;;125.60;70.93;;;;;;;3.04;100.00;99614.59;5093582;28;20426;-89
2022/11/25 00:05:11;;;;;;;143.38;68.82;;;;;;;3.04;100.00;99599.16;5093327;28;20074;-89
2022/11/25 00:07:37;;;;;;;121.85;64.18;;;;;;;3.09;100.00;99608.50;5093822;28;20111;-88
2022/11/25 00:10:03;;;;;;;119.72;60.55;;;;;;;3.06;100.00;99605.97;5093735;28;20119;-89
2022/11/25 00:12:29;;;;;;;141.45;65.63;;;;;;;3.08;100.00;99601.66;5093509;28;20059;-89
2022/11/25 00:14:54;;;;;;;116.97;59.30;;;;;;;3.02;100.00;99594.03;5093633;28;20439;-89
2022/11/25 00:17:19;;;;;;;105.03;51.55;;;;;;;3.11;100.00;99601.59;5094667;28;20411;-89
2022/11/25 00:19:47;;;;;;;95.35;49.08;;;;;;;3.06;100.00;99582.81;5093305;28;20455;-88
2022/11/25 00:22:13;;;;;;;96.28;48.25;;;;;;;3.13;100.00;99593.88;5094708;28;20024;-89
2022/11/25 00:24:38;;;;;;;104.13;49.10;;;;;;;3.07;100.00;99589.66;5093674;28;20028;-89
2022/11/25 00:27:04;;;;;;;99.00;49.03;;;;;;;3.11;100.00;99606.75;5094791;28;20023;-89
2022/11/25 00:29:29;;;;;;;94.95;47.67;;;;;;;3.13;100.00;99599.00;5093199;28;20059;-87
2022/11/25 00:31:54;;;;;;;97.00;46.78;;;;;;;3.15;100.00;99607.53;5094572;28;20367;-86
2022/11/25 00:34:20;;;;;;;102.43;47.70;;;;;;;3.11;100.00;99596.44;5092866;28;20078;-86
2022/11/25 00:36:45;;;;;;;93.63;46.72;;;;;;;3.16;100.00;99609.22;5093349;28;20074;-86
2022/11/25 00:39:13;;;;;;;90.03;46.95;;;;;;;3.16;100.00;99604.97;5093481;28;20020;-86
2022/11/25 00:44:40;;;;;;;131.30;58.05;;;;;;;3.19;100.00;99604.88;5051756;28;20025;-86
2022/11/25 00:47:09;;;;;;;133.85;58.35;;;;;;;3.24;100.00;99612.53;5034051;28;20098;-86
2022/11/25 00:49:36;;;;;;;128.60;59.63;;;;;;;3.08;100.00;99580.22;5051456;28;20025;-86
2022/11/25 00:52:02;;;;;;;125.78;52.38;;;;;;;3.26;100.00;99610.78;5051785;28;20120;-86
2022/11/25 00:54:28;;;;;;;114.72;51.38;;;;;;;3.24;100.00;99610.81;5051417;28;20029;-86
2022/11/25 00:56:53;;;;;;;114.88;47.55;;;;;;;3.31;100.00;99618.44;5034859;28;20040;-86
2022/11/25 00:59:19;;;;;;;117.13;50.40;;;;;;;3.32;100.00;99615.81;5051387;28;20029;-86
2022/11/25 01:01:44;;;;;;;104.55;47.92;;;;;;;3.25;100.00;99609.09;5051014;28;20274;-86
2022/11/25 01:04:10;;;;;;;104.80;45.53;;;;;;;3.33;100.00;99619.22;5051305;28;20021;-86
2022/11/25 01:06:36;;;;;;;117.18;49.78;;;;;;;3.34;100.00;99621.81;5034379;28;20043;-86
2022/11/25 01:09:03;;;;;;;112.60;51.72;;;;;;;3.34;100.00;99613.22;5051304;28;20021;-86
2022/11/25 01:11:28;;;;;;;110.70;49.78;;;;;;;3.37;100.00;99621.75;5034174;28;20035;-86
2022/11/25 01:13:55;;;;;;;99.70;49.58;;;;;;;3.38;100.00;99628.59;5051199;28;20518;-86
2022/11/25 01:16:21;;;;;;;108.35;55.35;;;;;;;3.39;100.00;99626.88;5050863;28;20035;-86
2022/11/25 01:18:47;;;;;;;122.88;59.85;;;;;;;3.31;100.00;99608.97;5065226;28;20093;-86
2022/11/25 01:21:20;;;;;;;111.32;55.47;;;;;;;3.40;100.00;99631.13;5092502;28;20027;-86
2022/11/25 01:23:47;;;;;;;120.70;54.30;;;;;;;3.40;100.00;99625.97;5092392;28;20016;-86
2022/11/25 01:26:16;;;;;;;102.90;51.25;;;;;;;3.38;100.00;99626.03;5092179;28;20028;-86
2022/11/25 01:28:42;;;;;;;117.28;55.45;;;;;;;3.33;100.00;99620.09;5093536;28;20024;-86
2022/11/25 01:31:10;;;;;;;113.00;58.30;;;;;;;3.34;100.00;99623.53;5092112;28;20352;-86
2022/11/25 01:33:36;;;;;;;123.53;60.45;;;;;;;3.23;100.00;99614.25;5091996;28;20368;-86
2022/11/25 01:36:20;;;;;;;112.63;56.55;;;;;;;3.25;100.00;99619.38;5082038;28;20094;-86
2022/11/25 01:38:52;;;;;;;117.25;55.53;;;;;;;3.21;100.00;99621.16;5073073;28;20024;-86
2022/11/25 01:41:19;;;;;;;128.23;59.78;;;;;;;3.23;100.00;99632.28;5055052;28;20021;-86
2022/11/25 01:44:11;;;;;;;122.43;58.63;;;;;;;3.07;100.00;99607.66;5055234;28;20364;-86
2022/11/25 01:46:54;;;;;;;126.85;64.95;;;;;;;3.22;100.00;99627.16;5072907;28;20108;-86
2022/11/25 01:49:24;;;;;;;98.72;49.05;;;;;;;3.21;100.00;99631.47;5054966;28;20499;-86
2022/11/25 01:51:56;;;;;;;102.82;49.72;;;;;;;3.22;100.00;99627.16;5072881;28;20395;-86
2022/11/25 01:54:25;;;;;;;120.38;58.65;;;;;;;3.17;100.00;99627.25;5072816;28;20403;-86
2022/11/25 01:57:16;;;;;;;119.78;57.55;;;;;;;3.21;100.00;99635.75;5072713;28;20468;-86
2022/11/25 01:59:48;;;;;;;120.47;55.30;;;;;;;3.25;100.00;99629.69;5072380;28;20052;-86
2022/11/25 02:02:14;;;;;;;116.72;57.28;;;;;;;3.21;100.00;99615.16;5054697;28;20032;-87
2022/11/25 02:04:42;;;;;;;107.13;51.22;;;;;;;3.26;100.00;99628.81;5072435;28;20406;-86
2022/11/25 02:07:14;;;;;;;107.10;53.63;;;;;;;3.28;100.00;99618.47;5072767;28;20028;-86
2022/11/25 02:09:42;;;;;;;112.45;55.58;;;;;;;3.22;100.00;99619.44;5072217;28;20035;-87
2022/11/25 02:12:09;;;;;;;126.28;64.40;;;;;;;3.28;100.00;99628.75;5054350;28;20020;-86
2022/11/25 02:14:34;;;;;;;118.65;62.22;;;;;;;3.27;100.00;99621.94;5072426;28;20042;-87
2022/11/25 02:17:01;;;;;;;123.28;57.00;;;;;;;3.26;100.00;99621.09;5054483;28;20024;-86
2022/11/25 02:20:02;;;;;;;120.68;56.78;;;;;;;3.27;100.00;99627.91;5054100;28;20368;-86
2022/11/25 02:22:55;;;;;;;112.95;52.95;;;;;;;3.32;100.00;99628.69;5053981;28;20074;-87
2022/11/25 02:25:24;;;;;;;119.18;51.75;;;;;;;3.32;100.00;99631.25;5012999;28;20137;-86
2022/11/25 02:28:06;;;;;;;125.45;53.72;;;;;;;3.29;100.00;99633.91;5029919;28;20124;-86
2022/11/25 02:30:32;;;;;;;123.90;55.47;;;;;;;3.29;100.00;99621.03;5029715;28;20493;-86
2022/11/25 02:32:59;;;;;;;120.38;55.55;;;;;;;3.29;100.00;99621.03;5013100;28;20025;-86
2022/11/25 02:35:41;;;;;;;121.97;51.42;;;;;;;3.28;100.00;99621.88;5041284;28;20498;-86
2022/11/25 02:38:14;;;;;;;120.30;51.03;;;;;;;3.33;100.00;99640.69;5052694;28;20442;-86
2022/11/25 02:40:46;;;;;;;100.57;47.35;;;;;;;3.29;100.00;99636.47;5069148;28;20055;-86
2022/11/25 02:43:13;;;;;;;105.47;47.25;;;;;;;3.34;100.00;99641.56;5052561;28;20032;-86
2022/11/25 02:45:46;;;;;;;114.25;50.88;;;;;;;3.23;100.00;99624.53;5052422;28;20399;-86
2022/11/25 02:48:11;;;;;;;118.30;51.33;;;;;;;3.28;100.00;99639.06;5052705;28;20480;-86
2022/11/25 02:50:37;;;;;;;116.80;52.30;;;;;;;3.23;100.00;99629.69;5052482;28;20119;-86
2022/11/25 02:53:03;;;;;;;112.10;52.38;;;;;;;3.31;100.00;99650.16;5069530;28;20400;-86
2022/11/25 02:55:29;;;;;;;117.68;54.22;;;;;;;3.26;100.00;99644.25;5073438;28;20044;-86
2022/11/25 02:57:54;;;;;;;117.38;55.13;;;;;;;3.25;100.00;99640.81;5092060;28;20363;-86
2022/11/25 03:00:20;;;;;;;124.47;60.00;;;;;;;3.22;100.00;99635.72;5092106;28;20436;-86
2022/11/25 03:02:46;;;;;;;126.35;58.03;;;;;;;3.28;100.00;99650.22;5090780;28;20027;-86
2022/11/25 03:05:11;;;;;;;127.40;58.35;;;;;;;3.28;100.00;99646.78;5092049;28;20020;-86
2022/11/25 03:07:38;;;;;;;117.60;58.47;;;;;;;3.28;100.00;99639.06;5090592;28;20024;-86
2022/11/25 03:10:04;;;;;;;134.70;61.90;;;;;;;3.30;100.00;99638.16;5091298;28;20473;-86
2022/11/25 03:12:29;;;;;;;124.85;60.42;;;;;;;3.31;100.00;99649.31;5095758;28;20024;-86
2022/11/25 03:14:55;;;;;;;138.80;67.38;;;;;;;3.23;100.00;99641.72;5095110;28;20031;-86
2022/11/25 03:17:20;;;;;;;148.15;74.45;;;;;;;3.32;100.00;99659.56;5094970;28;20016;-86
2022/11/25 03:19:45;;;;;;;143.35;70.03;;;;;;;3.23;100.00;99644.28;5094615;28;20020;-86
2022/11/25 03:22:11;;;;;;;154.27;74.38;;;;;;;3.25;100.00;99645.97;5094581;28;20169;-86
2022/11/25 03:24:36;;;;;;;154.80;80.53;;;;;;;3.27;100.00;99650.25;5094428;28;20484;-86
2022/11/25 03:27:01;;;;;;;148.07;73.28;;;;;;;3.20;100.00;99639.19;5094528;28;20085;-86
2022/11/25 03:29:27;;;;;;;142.23;71.18;;;;;;;3.20;100.00;99654.63;5095840;28;20471;-87
2022/11/25 03:31:52;;;;;;;156.82;74.22;;;;;;;3.20;100.00;99660.66;5094350;28;20479;-86
2022/11/25 03:34:17;;;;;;;147.15;66.95;;;;;;;3.20;100.00;99654.63;5094554;28;20058;-87
2022/11/25 03:36:42;;;;;;;144.68;72.20;;;;;;;3.17;100.00;99645.25;5093939;28;20048;-87
2022/11/25 03:39:08;;;;;;;142.48;64.18;;;;;;;3.21;100.00;99653.78;5094423;28;20023;-86
2022/11/25 03:41:33;;;;;;;138.95;64.00;;;;;;;3.14;100.00;99645.28;5095291;28;20024;-87
2022/11/25 03:43:58;;;;;;;139.80;65.13;;;;;;;3.19;100.00;99653.78;5094150;28;20455;-87
2022/11/25 03:46:24;;;;;;;136.07;64.35;;;;;;;3.21;100.00;99659.78;5094541;28;20730;-86
2022/11/25 03:48:49;;;;;;;145.05;64.95;;;;;;;3.19;100.00;99653.78;5094071;28;20375;-87
2022/11/25 03:51:14;;;;;;;134.18;62.25;;;;;;;3.22;100.00;99651.16;5094122;28;20122;-86
2022/11/25 03:53:40;;;;;;;124.88;62.92;;;;;;;3.21;100.00;99657.19;5093656;28;20456;-87
2022/11/25 03:56:05;;;;;;;138.35;65.30;;;;;;;3.16;100.00;99645.25;5095351;28;20478;-86
2022/11/25 03:58:31;;;;;;;128.63;62.05;;;;;;;3.14;100.00;99644.44;5094950;28;20095;-86
2022/11/25 04:01:00;;;;;;;134.77;62.13;;;;;;;3.21;100.00;99658.94;5095368;28;20027;-86
2022/11/25 04:03:25;;;;;;;124.00;60.90;;;;;;;3.19;100.00;99652.94;5094132;28;20027;-86
2022/11/25 04:05:51;;;;;;;147.23;64.88;;;;;;;3.20;100.00;99660.66;5093885;28;20028;-86
2022/11/25 04:08:16;;;;;;;138.32;60.50;;;;;;;3.18;100.00;99651.25;5093637;28;20585;-86
2022/11/25 04:10:41;;;;;;;136.38;61.20;;;;;;;3.14;100.00;99649.59;5093407;28;20118;-86
2022/11/25 04:13:07;;;;;;;139.57;62.70;;;;;;;3.26;100.00;99670.00;5093662;28;20394;-86
2022/11/25 04:15:32;;;;;;;151.43;67.05;;;;;;;3.23;100.00;99663.16;5093702;28;20150;-87
2022/11/25 04:17:57;;;;;;;156.90;67.45;;;;;;;3.21;100.00;99652.06;5095184;28;20103;-86
2022/11/25 04:20:23;;;;;;;154.30;69.38;;;;;;;3.25;100.00;99661.41;5093695;28;20035;-86
2022/11/25 04:22:48;;;;;;;148.07;66.80;;;;;;;3.30;100.00;99670.78;5093402;28;20447;-87
2022/11/25 04:25:14;;;;;;;143.18;69.22;;;;;;;3.25;100.00;99666.56;5093424;28;20449;-87
2022/11/25 04:27:39;;;;;;;150.60;67.10;;;;;;;3.29;100.00;99666.50;5093265;28;20411;-86
2022/11/25 04:30:06;;;;;;;138.02;63.90;;;;;;;3.29;100.00;99667.38;5093390;28;20532;-86
2022/11/25 04:32:31;;;;;;;141.93;60.90;;;;;;;3.33;100.00;99665.56;5093148;28;20406;-86
2022/11/25 04:34:56;;;;;;;143.68;63.17;;;;;;;3.35;100.00;99664.69;5090908;28;20024;-84
2022/11/25 04:37:22;;;;;;;148.45;69.18;;;;;;;3.36;100.00;99663.78;5074396;28;20028;-84
2022/11/25 04:39:47;;;;;;;141.93;64.88;;;;;;;3.33;100.00;99653.56;5055947;28;20028;-84
2022/11/25 04:42:31;;;;;;;131.23;64.32;;;;;;;3.36;100.00;99666.38;5073922;28;20073;-84
2022/11/25 04:44:56;;;;;;;144.02;65.95;;;;;;;3.26;100.00;99649.41;5056345;28;20031;-84
2022/11/25 04:47:22;;;;;;;142.02;64.70;;;;;;;3.27;100.00;99665.69;5056169;28;20017;-83
2022/11/25 04:49:47;;;;;;;153.73;67.45;;;;;;;3.30;100.00;99665.63;5073752;28;20111;-84
2022/11/25 04:52:13;;;;;;;222.82;88.97;;;;;;;3.31;100.00;99672.47;5055986;28;20029;-84
2022/11/25 04:54:38;;;;;;;418.05;215.57;;;;;;;3.29;100.00;99672.53;5055946;28;20028;-84
2022/11/25 04:57:04;;;;;;;188.25;87.18;;;;;;;3.24;100.00;99667.44;5074077;28;20027;-84
2022/11/25 04:59:38;;;;;;;148.02;68.15;;;;;;;3.30;100.00;99661.34;5056185;28;20478;-84
2022/11/25 05:02:04;;;;;;;123.78;59.13;;;;;;;3.33;100.00;99676.75;5073441;28;20519;-84
2022/11/25 05:04:30;;;;;;;133.98;59.55;;;;;;;3.36;100.00;99678.41;5073684;28;20031;-84
2022/11/25 05:06:55;;;;;;;138.20;59.92;;;;;;;3.34;100.00;99683.59;5074085;28;20020;-87
2022/11/25 05:09:21;;;;;;;132.35;59.30;;;;;;;3.34;100.00;99681.00;5055621;28;20448;-87
2022/11/25 05:11:46;;;;;;;125.82;56.65;;;;;;;3.35;100.00;99676.69;5055511;28;20024;-87
2022/11/25 05:14:12;;;;;;;130.73;56.28;;;;;;;3.42;100.00;99686.03;5073664;28;20086;-87
2022/11/25 05:16:37;;;;;;;139.30;58.17;;;;;;;3.40;100.00;99691.19;5055452;28;20016;-86
2022/11/25 05:19:02;;;;;;;144.20;61.17;;;;;;;3.38;100.00;99681.81;5073624;28;20033;-86
2022/11/25 05:21:28;;;;;;;137.90;62.22;;;;;;;3.37;100.00;99687.81;5073587;28;20024;-86
2022/11/25 05:23:54;;;;;;;158.00;64.22;;;;;;;3.44;100.00;99690.25;5055186;28;20517;-87
2022/11/25 05:26:19;;;;;;;157.32;64.68;;;;;;;3.45;100.00;99693.69;5055642;28;20020;-87
2022/11/25 05:28:45;;;;;;;151.70;64.57;;;;;;;3.46;100.00;99697.97;5073670;28;20363;-86
2022/11/25 05:31:10;;;;;;;135.52;61.78;;;;;;;3.45;100.00;99702.25;5055466;28;20436;-87
2022/11/25 05:33:36;;;;;;;150.50;66.75;;;;;;;3.45;100.00;99693.69;5072632;28;20031;-87
2022/11/25 05:36:03;;;;;;;161.05;68.75;;;;;;;3.50;100.00;99704.78;5073102;28;20118;-87
2022/11/25 05:38:28;;;;;;;167.20;74.10;;;;;;;3.50;100.00;99708.19;5073012;28;20059;-87
2022/11/25 05:41:00;;;;;;;158.95;73.43;;;;;;;3.48;100.00;99703.94;5072744;28;20052;-86
2022/11/25 05:43:25;;;;;;;146.75;68.63;;;;;;;3.56;100.00;99712.38;5073154;28;20020;-86
2022/11/25 05:45:50;;;;;;;160.50;71.57;;;;;;;3.54;100.00;99708.13;5054913;28;20028;-87
2022/11/25 05:48:16;;;;;;;157.55;71.30;;;;;;;3.54;100.00;99715.84;5055032;28;20093;-87
2022/11/25 05:50:41;;;;;;;156.90;71.88;;;;;;;3.53;100.00;99707.28;5072628;28;20031;-87
2022/11/25 05:53:06;;;;;;;167.32;71.53;;;;;;;3.48;100.00;99691.91;5054855;28;20021;-86
2022/11/25 05:55:32;;;;;;;152.88;67.20;;;;;;;3.59;100.00;99716.66;5073001;28;20269;-86
2022/11/25 05:57:58;;;;;;;149.60;65.55;;;;;;;3.58;100.00;99713.22;5054677;28;20024;-84
2022/11/25 06:00:24;;;;;;;154.57;62.78;;;;;;;3.55;100.00;99712.44;5072670;28;20028;-84
2022/11/25 06:02:50;;;;;;;153.82;64.90;;;;;;;3.54;100.00;99710.69;5072426;28;20418;-84
2022/11/25 06:05:15;;;;;;;140.88;61.72;;;;;;;3.42;100.00;99692.03;5072529;28;20025;-84
2022/11/25 06:07:40;;;;;;;152.20;65.28;;;;;;;3.54;100.00;99713.28;5072218;28;20016;-84
2022/11/25 06:10:06;;;;;;;154.95;66.35;;;;;;;3.50;100.00;99712.50;5054852;28;20258;-84
2022/11/25 06:12:32;;;;;;;140.13;61.22;;;;;;;3.55;100.00;99721.00;5054417;28;20585;-86
2022/11/25 06:14:57;;;;;;;143.35;62.92;;;;;;;3.50;100.00;99708.19;5054260;28;20026;-84
2022/11/25 06:17:22;;;;;;;134.57;58.75;;;;;;;3.57;100.00;99715.81;5072780;28;20031;-84
2022/11/25 06:19:48;;;;;;;166.68;68.45;;;;;;;3.59;100.00;99722.66;5054239;28;20027;-84
2022/11/25 06:22:13;;;;;;;166.20;70.38;;;;;;;3.58;100.00;99723.53;5054316;28;20452;-84
2022/11/25 06:24:38;;;;;;;160.32;69.78;;;;;;;3.55;100.00;99722.72;5054703;28;20071;-84
2022/11/25 06:27:04;;;;;;;156.15;69.50;;;;;;;3.57;100.00;99732.09;5072726;28;20286;-84
2022/11/25 06:29:29;;;;;;;169.80;71.55;;;;;;;3.59;100.00;99738.09;5054367;28;20020;-84
2022/11/25 06:31:54;;;;;;;165.93;70.38;;;;;;;3.61;100.00;99740.63;5054017;28;20742;-84
2022/11/25 06:34:20;;;;;;;154.13;71.53;;;;;;;3.62;100.00;99744.91;5054234;28;20021;-84
2022/11/25 06:36:47;;;;;;;161.07;71.25;;;;;;;3.60;100.00;99739.78;5084808;28;20048;-84
2022/11/25 06:39:13;;;;;;;150.80;64.63;;;;;;;3.60;100.00;99739.78;5092283;28;20028;-84
2022/11/25 06:41:38;;;;;;;147.57;67.57;;;;;;;3.62;100.00;99739.75;5090804;28;20023;-84
2022/11/25 06:44:03;;;;;;;146.02;69.60;;;;;;;3.60;100.00;99728.63;5091133;28;20039;-84
2022/11/25 06:46:30;;;;;;;148.57;70.10;;;;;;;3.66;100.00;99739.66;5091518;28;20016;-84
2022/11/25 06:48:59;;;;;;;149.05;70.00;;;;;;;3.69;100.00;99741.34;5092414;28;20020;-84
2022/11/25 06:51:24;;;;;;;147.05;65.55;;;;;;;3.69;100.00;99741.34;5090820;28;20040;-84
2022/11/25 06:53:50;;;;;;;143.18;66.35;;;;;;;3.72;100.00;99746.47;5092045;28;20164;-84
2022/11/25 06:56:21;;;;;;;147.60;67.30;;;;;;;3.72;100.00;99747.31;5090998;28;20016;-84
2022/11/25 06:58:47;;;;;;;145.57;63.75;;;;;;;3.70;100.00;99748.19;5090766;28;20181;-87
2022/11/25 07:01:14;;;;;;;142.77;64.30;;;;;;;3.69;100.00;99746.50;5090771;28;20048;-87
2022/11/25 07:03:40;;;;;;;147.63;69.82;;;;;;;3.73;100.00;99746.44;5091760;28;20024;-87
2022/11/25 07:06:07;;;;;;;149.60;69.38;;;;;;;3.66;100.00;99742.25;5090580;28;20035;-87
2022/11/25 07:08:32;;;;;;;143.07;64.43;;;;;;;3.67;100.00;99759.44;5092177;28;20023;-87
2022/11/25 07:11:06;;;;;;;125.63;59.33;;;;;;;3.66;100.00;99749.97;5090575;28;20028;-87
2022/11/25 07:13:32;;;;;;;142.77;58.97;;;;;;;3.63;100.00;99747.47;5090742;28;20024;-87
2022/11/25 07:16:02;;;;;;;146.13;63.85;;;;;;;3.61;100.00;99759.50;5091770;28;20064;-87
2022/11/25 07:18:30;;;;;;;139.38;61.50;;;;;;;3.56;100.00;99756.16;5090510;28;20107;-86
2022/11/25 07:20:59;;;;;;;146.05;61.47;;;;;;;3.49;100.00;99752.81;5090384;28;20024;-87
2022/11/25 07:23:26;;;;;;;161.20;74.60;;;;;;;3.61;100.00;99768.97;5091953;28;20031;-87
2022/11/25 07:25:51;;;;;;;166.15;75.78;;;;;;;3.55;100.00;99753.63;5091890;28;20028;-86
2022/11/25 07:28:17;;;;;;;148.60;68.05;;;;;;;3.56;100.00;99768.19;5089106;28;20036;-87
2022/11/25 07:30:42;;;;;;;154.75;68.00;;;;;;;3.71;100.00;99780.84;5089150;28;20039;-87
2022/11/25 07:33:08;;;;;;;143.57;62.42;;;;;;;3.77;100.00;99782.44;5072129;28;20032;-87
2022/11/25 07:35:33;;;;;;;144.50;66.60;;;;;;;3.76;100.00;99781.59;5089065;28;20077;-87
2022/11/25 07:37:58;;;;;;;154.57;75.55;;;;;;;3.79;100.00;99778.94;5089363;28;20032;-87
2022/11/25 07:40:23;;;;;;;141.98;70.47;;;;;;;3.82;100.00;99776.34;5072231;28;20113;-87
2022/11/25 07:42:49;;;;;;;146.60;71.15;;;;;;;3.78;100.00;99771.25;5071968;28;20028;-87
2022/11/25 07:45:14;;;;;;;146.65;71.85;;;;;;;3.92;100.00;99787.34;5089288;28;20024;-87
2022/11/25 07:47:40;;;;;;;139.95;69.78;;;;;;;3.90;100.00;99787.34;5089176;28;20374;-86
2022/11/25 07:50:06;;;;;;;140.38;64.30;;;;;;;3.91;100.00;99783.91;5088951;28;20032;-87
2022/11/25 07:52:31;;;;;;;130.18;60.53;;;;;;;3.86;100.00;99770.25;5089014;28;20025;-87
2022/11/25 07:54:57;;;;;;;135.23;59.80;;;;;;;3.99;100.00;99783.75;5071934;28;20123;-87
2022/11/25 07:57:22;;;;;;;131.57;59.30;;;;;;;4.00;100.00;99783.75;5091724;28;20032;-87
2022/11/25 07:59:47;;;;;;;131.77;59.50;;;;;;;4.03;100.00;99787.16;5087852;28;20036;-87
2022/11/25 08:02:13;;;;;;;131.43;61.22;;;;;;;4.07;100.00;99786.22;5093886;28;20462;-87
2022/11/25 08:04:38;;;;;;;150.23;66.80;;;;;;;4.12;100.00;99784.41;5095493;28;20509;-87
2022/11/25 08:07:03;;;;;;;137.05;65.10;;;;;;;4.14;100.00;99782.66;5093775;28;20367;-86
2022/11/25 08:09:29;;;;;;;131.60;60.50;;;;;;;4.18;100.00;99786.88;5095305;28;20344;-86
2022/11/25 08:11:54;;;;;;;143.38;65.07;;;;;;;4.14;100.00;99772.34;5093635;28;20509;-86
2022/11/25 08:14:20;;;;;;;127.30;59.03;;;;;;;4.23;100.00;99797.94;5095030;28;20417;-86
2022/11/25 08:16:45;;;;;;;129.60;58.42;;;;;;;4.23;100.00;99790.22;5093400;28;20027;-86
2022/11/25 08:19:14;;;;;;;138.32;58.75;;;;;;;4.30;100.00;99799.53;5093859;28;20355;-86
2022/11/25 08:21:40;;;;;;;126.63;57.42;;;;;;;4.34;100.00;99795.16;5093639;28;20073;-86
2022/11/25 08:24:06;;;;;;;149.93;68.90;;;;;;;4.31;100.00;99797.81;5094762;28;20054;-86
2022/11/25 08:26:36;;;;;;;133.10;65.90;;;;;;;4.29;100.00;99789.25;5093572;28;20024;-86
2022/11/25 08:29:03;;;;;;;146.93;64.80;;;;;;;4.37;100.00;99798.53;5093208;28;20024;-86
2022/11/25 08:31:32;;;;;;;128.45;59.53;;;;;;;4.36;100.00;99786.53;5094573;28;20617;-86
2022/11/25 08:33:58;;;;;;;131.65;60.08;;;;;;;4.23;100.00;99774.75;5093297;28;20016;-86
2022/11/25 08:36:25;;;;;;;127.75;56.83;;;;;;;4.29;100.00;99781.50;5093423;28;20383;-86
2022/11/25 08:38:52;;;;;;;152.23;61.85;;;;;;;4.31;100.00;99790.09;5093195;28;20111;-87
2022/11/25 08:41:22;;;;;;;120.38;60.10;;;;;;;4.26;100.00;99790.16;5093148;28;20069;-86
2022/11/25 08:43:48;;;;;;;133.60;63.33;;;;;;;4.33;100.00;99798.63;5094234;28;20016;-85
2022/11/25 08:46:18;;;;;;;136.98;61.50;;;;;;;4.32;100.00;99797.78;5094347;28;20019;-86
2022/11/25 08:48:43;;;;;;;114.38;55.85;;;;;;;4.34;100.00;99797.72;5096109;28;20107;-85
2022/11/25 08:51:11;;;;;;;117.72;54.75;;;;;;;4.39;100.00;99796.78;5095045;28;20058;-85
2022/11/25 08:53:37;;;;;;;127.18;58.55;;;;;;;4.42;100.00;99788.97;5092918;28;20050;-85
2022/11/25 08:56:03;;;;;;;119.75;56.25;;;;;;;4.50;100.00;99791.41;5092779;28;20409;-85
2022/11/25 08:58:28;;;;;;;122.10;55.97;;;;;;;4.56;100.00;99796.47;5094112;28;20085;-86
2022/11/25 09:00:54;;;;;;;133.60;60.10;;;;;;;4.68;100.00;99797.94;5092679;28;20016;-86
2022/11/25 09:03:19;;;;;;;126.55;59.58;;;;;;;4.76;100.00;99803.78;5093031;28;20016;-86
2022/11/25 09:05:44;;;;;;;132.20;56.53;;;;;;;4.83;100.00;99802.78;5071994;28;20021;-86
2022/11/25 09:08:10;;;;;;;128.55;55.65;;;;;;;4.91;100.00;99808.63;5063842;28;20384;-85
2022/11/25 09:10:38;;;;;;;112.15;52.30;;;;;;;4.94;100.00;99806.00;5062140;28;20031;-84
2022/11/25 09:13:03;;;;;;;124.15;57.10;;;;;;;4.95;100.00;99807.69;5061314;28;20065;-85
2022/11/25 09:15:29;;;;;;;107.97;52.30;;;;;;;5.03;100.00;99812.69;5063487;28;20054;-84
2022/11/25 09:17:58;;;;;;;102.18;49.60;;;;;;;5.02;100.00;99797.25;5056958;28;20036;-84
2022/11/25 09:20:23;;;;;;;98.95;47.15;;;;;;;5.12;100.00;99815.06;5052426;28;20364;-85
2022/11/25 09:22:49;;;;;;;100.53;47.08;;;;;;;5.09;100.00;99799.63;5054310;28;20025;-85
2022/11/25 09:25:14;;;;;;;96.93;48.58;;;;;;;5.19;100.00;99818.38;5053423;28;20017;-85
2022/11/25 09:27:40;;;;;;;111.85;51.85;;;;;;;5.24;100.00;99814.81;5051997;28;20033;-85
2022/11/25 09:30:06;;;;;;;107.53;53.25;;;;;;;5.32;100.00;99806.88;5053315;28;20024;-85
2022/11/25 09:32:32;;;;;;;124.38;64.47;;;;;;;5.34;100.00;99805.09;5053430;28;20029;-85
2022/11/25 09:34:57;;;;;;;122.97;59.17;;;;;;;5.45;100.00;99797.97;5051355;28;20024;-85
2022/11/25 09:37:23;;;;;;;116.93;59.05;;;;;;;5.54;100.00;99804.66;5015584;28;20095;-85
2022/11/25 09:39:51;;;;;;;102.13;52.83;;;;;;;5.64;100.00;99806.13;5033143;28;20452;-86
2022/11/25 09:48:58;;;;;;;82.13;47.92;;;;;;;5.84;100.00;99802.22;5043013;28;20094;-85
2022/11/25 09:51:59;;;;;;;83.85;46.58;;;;;;;5.90;100.00;99800.34;5022265;28;20037;-85
2022/11/25 09:54:38;;;;;;;104.55;51.35;;;;;;;5.95;100.00;99798.50;4943753;28;20027;-85
2022/11/25 09:57:25;;;;;;;99.88;48.08;;;;;;;6.07;100.00;99805.13;4961441;28;20125;-85
2022/11/25 10:00:09;;;;;;;118.10;58.15;;;;;;;6.16;100.00;99799.69;4960375;28;20027;-85
2022/11/25 10:03:17;;;;;;;128.32;62.88;;;;;;;6.21;100.00;99805.59;4964044;28;20035;-85
2022/11/25 10:06:04;;;;;;;112.65;58.53;;;;;;;6.25;100.00;99804.63;4876439;29;20033;-85
2022/11/25 10:08:37;;;;;;;111.13;59.53;;;;;;;6.26;100.00;99805.47;4861190;29;20084;-85
2022/11/25 10:11:16;;;;;;;123.43;64.90;;;;;;;6.17;100.00;99796.22;4876046;29;20428;-85
2022/11/25 10:14:07;;;;;;;123.00;66.65;;;;;;;6.07;100.00;99804.25;4860991;29;20033;-85
2022/11/25 10:16:37;;;;;;;116.00;61.35;;;;;;;5.88;100.00;99796.09;4874136;29;20045;-85
2022/11/25 10:19:11;;;;;;;112.35;55.25;;;;;;;5.74;100.00;99799.88;4860456;29;20041;-85
2022/11/25 10:21:37;;;;;;;109.80;56.70;;;;;;;5.65;100.00;99796.66;4860573;29;20028;-85
2022/11/25 10:24:04;;;;;;;105.65;53.50;;;;;;;5.66;100.00;99804.38;4876024;29;20124;-85
2022/11/25 10:26:41;;;;;;;95.78;51.67;;;;;;;5.63;100.00;99799.25;4860788;29;20024;-85
2022/11/25 10:29:12;;;;;;;90.80;47.13;;;;;;;5.67;100.00;99806.06;4858458;29;20041;-85
2022/11/25 10:31:39;;;;;;;101.07;54.03;;;;;;;5.61;100.00;99787.28;4900866;29;20035;-85
2022/11/25 10:34:16;;;;;;;123.78;67.20;;;;;;;5.76;100.00;99802.41;4932320;29;20027;-85
2022/11/25 10:36:43;;;;;;;152.10;95.65;;;;;;;5.84;100.00;99804.81;4916422;29;20046;-85
2022/11/25 10:39:25;;;;;;;135.63;76.03;;;;;;;5.97;100.00;99807.06;4916542;29;20493;-85
2022/11/25 10:42:03;;;;;;;127.53;71.05;;;;;;;6.03;100.00;99794.91;4939644;28;20044;-85
2022/11/25 10:44:37;;;;;;;127.60;72.22;;;;;;;6.07;100.00;99801.66;5034137;28;20017;-85
2022/11/25 10:47:27;;;;;;;192.13;107.72;;;;;;;6.10;100.00;99812.78;5051936;28;20025;-85
2022/11/25 10:50:11;;;;;;;154.80;89.05;;;;;;;6.07;100.00;99812.00;5051808;28;20029;-85
2022/11/25 10:52:41;;;;;;;165.95;97.07;;;;;;;6.10;100.00;99809.34;5034120;28;20450;-84
2022/11/25 10:55:09;;;;;;;131.68;72.65;;;;;;;6.12;100.00;99807.59;5033729;28;20035;-85
2022/11/25 10:57:34;;;;;;;130.40;84.45;;;;;;;6.12;100.00;99800.66;5034166;28;20120;-85
2022/11/25 11:00:02;;;;;;;153.30;94.50;;;;;;;6.24;100.00;99810.69;5029080;28;20448;-85
2022/11/25 11:02:33;;;;;;;159.27;97.95;;;;;;;6.31;100.00;99811.38;5012768;28;20029;-85
2022/11/25 11:05:18;;;;;;;129.52;78.38;;;;;;;6.24;100.00;99795.19;5012580;28;20477;-85
2022/11/25 11:07:45;;;;;;;134.68;82.55;;;;;;;6.31;100.00;99807.94;5009532;28;20068;-85
2022/11/25 11:10:14;;;;;;;131.65;81.38;;;;;;;6.39;100.00;99809.41;5009412;28;20116;-85
2022/11/25 11:12:55;;;;;;;148.50;96.03;;;;;;;6.43;100.00;99816.22;4993196;28;20030;-85
2022/11/25 11:15:24;;;;;;;125.57;77.38;;;;;;;6.44;100.00;99797.19;5009673;28;20505;-85
2022/11/25 11:17:50;;;;;;;100.53;56.63;;;;;;;6.58;100.00;99807.19;5009508;28;20510;-85
2022/11/25 11:20:33;;;;;;;106.40;59.53;;;;;;;6.56;100.00;99814.13;4992875;28;20041;-85
2022/11/25 11:23:08;;;;;;;185.85;103.13;;;;;;;6.57;100.00;99815.81;5009451;28;20041;-85